createdAt,value
2023-03-25T00:00:13.265Z,64.30
2023-03-25T00:02:41.160Z,65.17
2023-03-25T00:05:10.748Z,65.46
2023-03-25T00:07:38.432Z,65.72
2023-03-25T00:10:07.117Z,65.41
2023-03-25T00:12:34.657Z,67.69
2023-03-25T00:15:02.955Z,67.20
2023-03-25T00:17:31.054Z,65.94
2023-03-25T00:20:00.435Z,66.04
2023-03-25T00:22:29.432Z,66.20
2023-03-25T00:24:56.989Z,66.80
2023-03-25T00:27:24.506Z,66.21
2023-03-25T00:29:52.329Z,67.59
2023-03-25T00:32:20.978Z,67.70
2023-03-25T00:34:48.803Z,67.43
2023-03-25T00:37:18.199Z,69.01
2023-03-25T00:39:47.094Z,68.13
2023-03-25T00:42:16.773Z,67.95
2023-03-25T00:44:44.469Z,68.01
2023-03-25T00:47:18.206Z,68.06
2023-03-25T00:49:46.384Z,67.56
2023-03-25T00:52:14.380Z,67.16
2023-03-25T00:54:41.903Z,67.38
2023-03-25T00:57:10.810Z,67.13
2023-03-25T00:59:38.384Z,68.21
2023-03-25T01:02:06.938Z,67.99
2023-03-25T01:04:35.062Z,68.43
2023-03-25T01:07:03.482Z,68.29
2023-03-25T01:09:31.617Z,68.30
2023-03-25T01:11:59.161Z,68.64
2023-03-25T01:14:29.083Z,67.75
2023-03-25T01:16:56.953Z,68.69
2023-03-25T01:19:24.660Z,67.87
2023-03-25T01:21:52.182Z,67.95
2023-03-25T01:24:20.298Z,69.08
2023-03-25T01:26:47.886Z,68.96
2023-03-25T01:29:17.497Z,67.62
2023-03-25T01:31:46.841Z,69.35
2023-03-25T01:34:14.918Z,67.80
2023-03-25T01:36:46.692Z,68.66
2023-03-25T01:39:16.563Z,67.10
2023-03-25T01:41:50.216Z,68.20
2023-03-25T01:44:57.229Z,67.13
2023-03-25T01:47:27.267Z,70.14
2023-03-25T01:49:54.930Z,70.50
2023-03-25T01:52:27.654Z,69.60
2023-03-25T01:54:56.625Z,67.59
2023-03-25T01:57:26.103Z,68.67
2023-03-25T01:59:55.259Z,68.97
2023-03-25T02:02:25.416Z,69.69
2023-03-25T02:05:02.569Z,67.37
2023-03-25T02:07:32.707Z,66.31
2023-03-25T02:10:03.076Z,67.76
2023-03-25T02:12:31.042Z,66.40
2023-03-25T02:15:02.544Z,68.51
2023-03-25T02:17:37.397Z,68.05
2023-03-25T02:20:45.390Z,65.55
2023-03-25T02:23:47.984Z,65.22
2023-03-25T02:26:41.816Z,64.43
2023-03-25T02:29:14.525Z,66.22
2023-03-25T02:31:51.852Z,66.59
2023-03-25T02:34:33.791Z,67.85
2023-03-25T02:37:20.268Z,66.21
2023-03-25T02:39:52.980Z,66.34
2023-03-25T02:42:24.318Z,66.08
2023-03-25T02:44:57.985Z,66.14
2023-03-25T02:47:31.321Z,66.63
2023-03-25T02:50:04.667Z,66.97
2023-03-25T02:52:37.949Z,67.70
2023-03-25T02:55:10.522Z,65.51
2023-03-25T02:57:42.073Z,64.94
2023-03-25T03:00:15.384Z,66.23
2023-03-25T03:02:46.240Z,66.92
2023-03-25T03:05:26.025Z,66.87
2023-03-25T03:08:03.879Z,64.71
2023-03-25T03:10:43.374Z,68.07
2023-03-25T03:13:22.450Z,65.42
2023-03-25T03:15:59.103Z,67.10
2023-03-25T03:18:38.649Z,64.68
2023-03-25T03:21:12.827Z,67.06
2023-03-25T03:23:52.313Z,66.10
2023-03-25T03:26:29.702Z,65.46
2023-03-25T03:29:04.461Z,64.76
2023-03-25T03:31:48.318Z,65.17
2023-03-25T03:34:34.467Z,65.56
2023-03-25T03:37:05.829Z,63.76
2023-03-25T03:39:36.541Z,64.73
2023-03-25T03:42:10.558Z,64.02
2023-03-25T03:44:41.322Z,62.85
2023-03-25T03:47:14.012Z,62.83
2023-03-25T03:49:43.885Z,63.50
2023-03-25T03:52:17.090Z,63.24
2023-03-25T03:54:49.015Z,64.60
2023-03-25T03:57:25.104Z,63.27
2023-03-25T04:00:03.872Z,62.60
2023-03-25T04:02:39.425Z,63.25
2023-03-25T04:05:11.361Z,63.95
2023-03-25T04:07:42.958Z,63.68
2023-03-25T04:10:15.701Z,63.52
2023-03-25T04:12:46.538Z,63.92
2023-03-25T04:15:15.289Z,62.84
2023-03-25T04:17:42.962Z,63.37
2023-03-25T04:20:14.755Z,62.91
2023-03-25T04:22:45.364Z,64.13
2023-03-25T04:25:14.082Z,63.50
2023-03-25T04:27:48.683Z,63.08
2023-03-25T04:30:19.137Z,62.35
2023-03-25T04:32:47.924Z,63.03
2023-03-25T04:35:16.849Z,62.53
2023-03-25T04:37:45.746Z,62.07
2023-03-25T04:40:13.744Z,63.19
2023-03-25T04:42:42.770Z,62.53
2023-03-25T04:45:14.241Z,62.13
2023-03-25T04:47:44.970Z,63.11
2023-03-25T04:50:20.048Z,63.69
2023-03-25T04:52:47.731Z,62.93
2023-03-25T04:55:17.633Z,62.82
2023-03-25T04:57:46.793Z,63.65
2023-03-25T05:00:15.831Z,65.23
2023-03-25T05:02:49.272Z,67.59
2023-03-25T05:05:18.514Z,65.22
2023-03-25T05:07:49.398Z,64.07
2023-03-25T05:10:18.165Z,63.92
2023-03-25T05:12:46.074Z,65.93
2023-03-25T05:15:14.363Z,65.42
2023-03-25T05:17:43.987Z,64.93
2023-03-25T05:20:14.236Z,63.83
2023-03-25T05:22:41.905Z,65.31
2023-03-25T05:25:11.002Z,64.65
2023-03-25T05:27:39.441Z,64.93
2023-03-25T05:30:08.764Z,65.32
2023-03-25T05:32:36.973Z,64.25
2023-03-25T05:35:05.069Z,65.17
2023-03-25T05:37:34.236Z,65.39
2023-03-25T05:40:02.286Z,64.11
2023-03-25T05:42:29.844Z,66.00
2023-03-25T05:44:57.635Z,65.82
2023-03-25T05:47:26.308Z,65.30
2023-03-25T05:49:54.413Z,63.98
2023-03-25T05:52:24.401Z,63.84
2023-03-25T05:54:53.357Z,65.78
2023-03-25T05:57:20.847Z,65.19
2023-03-25T05:59:48.957Z,64.48
2023-03-25T06:02:17.924Z,65.51
2023-03-25T06:04:46.619Z,64.93
2023-03-25T06:07:20.076Z,65.10
2023-03-25T06:09:47.804Z,64.54
2023-03-25T06:12:19.920Z,64.51
2023-03-25T06:14:48.286Z,64.56
2023-03-25T06:17:18.987Z,65.61
2023-03-25T06:19:47.225Z,65.44
2023-03-25T06:22:14.821Z,65.29
2023-03-25T06:24:43.358Z,63.80
2023-03-25T06:27:15.690Z,64.99
2023-03-25T06:29:45.688Z,64.70
2023-03-25T06:32:15.400Z,63.16
2023-03-25T06:34:43.487Z,65.06
2023-03-25T06:37:11.681Z,65.06
2023-03-25T06:39:39.186Z,63.90
2023-03-25T06:42:07.319Z,64.34
2023-03-25T06:44:34.846Z,64.05
2023-03-25T06:47:05.482Z,61.83
2023-03-25T06:49:33.043Z,62.29
2023-03-25T06:52:00.564Z,63.43
2023-03-25T06:54:28.111Z,61.37
2023-03-25T06:56:55.669Z,62.26
2023-03-25T06:59:23.501Z,61.03
2023-03-25T07:01:51.186Z,61.82
2023-03-25T07:04:20.136Z,60.51
2023-03-25T07:06:47.685Z,61.09
2023-03-25T07:09:15.484Z,60.05
2023-03-25T07:11:43.097Z,61.23
2023-03-25T07:14:10.616Z,60.32
2023-03-25T07:16:38.226Z,61.85
2023-03-25T07:19:06.027Z,62.67
2023-03-25T07:21:34.931Z,60.87
2023-03-25T07:24:02.516Z,61.71
2023-03-25T07:26:30.087Z,61.38
2023-03-25T07:28:57.613Z,61.35
2023-03-25T07:31:27.593Z,61.60
2023-03-25T07:33:55.521Z,61.14
2023-03-25T07:36:25.186Z,60.02
2023-03-25T07:38:56.443Z,60.30
2023-03-25T07:41:24.466Z,59.56
2023-03-25T07:43:52.005Z,60.08
2023-03-25T07:46:19.650Z,60.24
2023-03-25T07:48:47.253Z,58.74
2023-03-25T07:51:14.814Z,56.87
2023-03-25T07:53:44.664Z,56.51
2023-03-25T07:56:14.369Z,54.34
2023-03-25T07:58:42.198Z,52.92
2023-03-25T08:01:09.959Z,49.27
2023-03-25T08:03:39.862Z,49.93
2023-03-25T08:06:09.028Z,50.71
2023-03-25T08:08:37.105Z,51.42
2023-03-25T08:11:04.914Z,50.34
2023-03-25T08:13:33.958Z,53.21
2023-03-25T08:16:01.625Z,52.78
2023-03-25T08:18:29.346Z,54.13
2023-03-25T08:20:56.863Z,54.79
2023-03-25T08:23:26.642Z,54.89
2023-03-25T08:25:54.614Z,55.13
2023-03-25T08:28:23.476Z,54.28
2023-03-25T08:30:54.795Z,52.70
2023-03-25T08:33:27.354Z,52.89
2023-03-25T08:35:58.502Z,52.17
2023-03-25T08:38:34.361Z,49.68
2023-03-25T08:41:03.005Z,48.14
2023-03-25T08:43:30.669Z,45.58
2023-03-25T08:45:59.554Z,41.23
2023-03-25T08:48:27.184Z,39.13
2023-03-25T08:50:54.683Z,36.79
2023-03-25T08:53:22.167Z,36.52
2023-03-25T08:55:53.219Z,35.98
2023-03-25T08:58:22.194Z,37.53
2023-03-25T09:00:54.351Z,38.64
2023-03-25T09:03:24.616Z,42.07
2023-03-25T09:05:52.266Z,42.55
2023-03-25T09:08:20.407Z,43.02
2023-03-25T09:10:47.953Z,42.26
2023-03-25T09:13:15.730Z,42.14
2023-03-25T09:15:43.377Z,42.10
2023-03-25T09:18:11.164Z,42.66
2023-03-25T09:20:41.176Z,42.12
2023-03-25T09:23:09.740Z,41.51
2023-03-25T09:25:38.649Z,40.53
2023-03-25T09:28:06.367Z,41.42
2023-03-25T09:30:33.909Z,43.00
2023-03-25T09:33:02.036Z,43.61
2023-03-25T09:35:29.702Z,43.45
2023-03-25T09:37:58.637Z,45.32
2023-03-25T09:40:27.039Z,46.64
2023-03-25T09:43:03.527Z,47.30
2023-03-25T09:45:36.385Z,50.40
2023-03-25T09:48:09.016Z,50.90
2023-03-25T09:50:38.636Z,50.87
2023-03-25T09:53:17.475Z,52.93
2023-03-25T09:55:48.098Z,53.73
2023-03-25T09:58:34.769Z,53.39
2023-03-25T10:01:09.904Z,55.68
2023-03-25T10:03:48.783Z,56.16
2023-03-25T10:06:20.134Z,56.83
2023-03-25T10:09:06.107Z,56.33
2023-03-25T10:11:41.598Z,58.48
2023-03-25T10:14:12.739Z,58.37
2023-03-25T10:16:52.595Z,58.22
2023-03-25T10:22:05.980Z,57.74
2023-03-25T10:24:40.865Z,57.13
2023-03-25T10:27:16.788Z,57.64
2023-03-25T10:29:50.085Z,57.97
2023-03-25T10:32:20.854Z,57.11
2023-03-25T10:34:51.588Z,57.41
2023-03-25T10:37:28.704Z,58.81
2023-03-25T10:40:06.271Z,57.98
2023-03-25T10:42:39.765Z,59.10
2023-03-25T11:14:24.117Z,50.53
2023-03-25T11:16:57.073Z,48.47
2023-03-25T11:54:57.576Z,46.34
2023-03-25T13:48:35.747Z,54.25
2023-03-25T13:51:04.963Z,56.80
2023-03-25T13:53:36.502Z,55.12
2023-03-25T14:49:22.357Z,54.47
2023-03-25T14:51:52.206Z,56.15
2023-03-25T14:54:30.962Z,56.37
2023-03-25T14:57:12.085Z,54.57
2023-03-25T14:59:43.526Z,55.55
2023-03-25T15:02:17.487Z,53.29
2023-03-25T15:04:46.710Z,54.23
2023-03-25T15:07:20.610Z,54.85
2023-03-25T15:09:57.699Z,54.04
2023-03-25T15:12:27.885Z,54.48
2023-03-25T15:14:58.388Z,55.20
2023-03-25T15:17:47.028Z,57.83
2023-03-25T15:20:36.772Z,55.76
2023-03-25T15:23:33.205Z,58.35
2023-03-25T15:29:31.784Z,57.14
2023-03-25T15:34:57.735Z,57.66
2023-03-25T15:37:39.387Z,58.13
2023-03-25T15:40:30.335Z,58.07
2023-03-25T15:43:39.310Z,58.14
2023-03-25T15:46:46.833Z,57.59
2023-03-25T15:52:42.023Z,57.92
2023-03-25T15:55:14.642Z,56.62
2023-03-25T16:00:56.468Z,59.80
2023-03-25T16:03:30.955Z,59.44
2023-03-25T16:06:06.504Z,57.62
2023-03-25T16:08:39.599Z,57.61
2023-03-25T16:11:26.197Z,58.78
2023-03-25T16:14:12.581Z,56.75
2023-03-25T16:16:43.316Z,57.61
2023-03-25T16:19:17.687Z,57.05
2023-03-25T16:21:49.622Z,55.67
2023-03-25T16:24:17.906Z,56.75
2023-03-25T16:26:48.004Z,57.12
2023-03-25T16:29:20.505Z,56.29
2023-03-25T16:31:57.878Z,54.19
2023-03-25T16:34:31.640Z,54.47
2023-03-25T16:37:00.968Z,55.04
2023-03-25T16:39:40.964Z,55.17
2023-03-25T16:42:29.934Z,56.70
2023-03-25T16:45:09.289Z,56.54
2023-03-25T16:47:45.643Z,54.72
2023-03-25T16:50:29.701Z,55.69
2023-03-25T16:53:19.196Z,55.05
2023-03-25T16:56:00.815Z,54.97
2023-03-25T16:58:38.302Z,55.01
2023-03-25T17:01:17.145Z,52.14
2023-03-25T17:03:50.425Z,53.42
2023-03-25T17:06:39.028Z,53.39
2023-03-25T17:09:16.866Z,52.26
2023-03-25T17:11:51.827Z,53.94
2023-03-25T17:14:22.249Z,54.40
2023-03-25T17:16:52.989Z,52.53
2023-03-25T17:19:24.383Z,53.32
2023-03-25T17:22:17.455Z,52.04
2023-03-25T17:24:54.261Z,51.85
2023-03-25T17:27:26.858Z,54.12
2023-03-25T17:29:57.474Z,53.57
2023-03-25T17:32:25.171Z,55.10
2023-03-25T17:35:06.461Z,53.27
2023-03-25T17:37:35.656Z,54.43
2023-03-25T17:40:12.612Z,55.90
2023-03-25T17:42:41.511Z,54.53
2023-03-25T17:45:14.940Z,54.50
2023-03-25T17:47:42.636Z,55.01
2023-03-25T17:50:18.310Z,55.79
2023-03-25T17:52:47.753Z,53.89
2023-03-25T17:55:16.126Z,53.52
2023-03-25T17:57:43.970Z,57.22
2023-03-25T18:00:18.519Z,55.36
2023-03-25T18:02:46.400Z,53.99
2023-03-25T18:05:15.648Z,56.37
2023-03-25T18:07:43.825Z,54.85
2023-03-25T18:10:23.929Z,55.62
2023-03-25T18:12:52.177Z,57.52
2023-03-25T18:15:20.322Z,57.86
2023-03-25T18:17:50.340Z,56.06
2023-03-25T18:20:22.612Z,57.55
2023-03-25T18:22:57.610Z,57.40
2023-03-25T18:25:27.205Z,57.63
2023-03-25T18:27:56.492Z,56.17
2023-03-25T18:30:27.441Z,56.24
2023-03-25T18:32:55.247Z,57.22
2023-03-25T18:35:23.185Z,57.43
2023-03-25T18:37:50.821Z,56.49
2023-03-25T18:40:23.435Z,56.33
2023-03-25T18:42:52.966Z,56.31
2023-03-25T18:45:22.993Z,57.26
2023-03-25T18:47:51.544Z,56.50
2023-03-25T18:50:24.949Z,56.62
2023-03-25T18:52:58.996Z,58.63
2023-03-25T18:55:28.703Z,57.19
2023-03-25T18:57:58.511Z,57.75
2023-03-25T19:00:28.975Z,58.82
2023-03-25T19:02:58.288Z,56.96
2023-03-25T19:05:26.890Z,56.80
2023-03-25T19:07:54.611Z,57.84
2023-03-25T19:10:24.526Z,58.13
2023-03-25T19:12:52.572Z,57.06
2023-03-25T19:15:24.942Z,57.47
2023-03-25T19:17:53.077Z,58.40
2023-03-25T19:20:26.550Z,58.71
2023-03-25T19:22:54.547Z,57.19
2023-03-25T19:25:23.045Z,56.27
2023-03-25T19:27:50.647Z,57.57
2023-03-25T19:30:22.162Z,58.11
2023-03-25T19:32:51.605Z,56.46
2023-03-25T19:35:20.650Z,58.21
2023-03-25T19:37:50.900Z,58.01
2023-03-25T19:40:20.891Z,58.68
2023-03-25T19:42:49.683Z,57.83
2023-03-25T19:45:18.216Z,57.99
2023-03-25T19:47:47.540Z,58.23
2023-03-25T19:50:18.951Z,57.65
2023-03-25T19:52:48.346Z,57.72
2023-03-25T19:55:16.706Z,58.71
2023-03-25T19:57:46.036Z,58.04
2023-03-25T20:00:16.656Z,58.76
2023-03-25T20:02:46.561Z,58.73
2023-03-25T20:05:16.765Z,59.42
2023-03-25T20:07:46.245Z,58.86
2023-03-25T20:10:20.045Z,57.96
2023-03-25T20:12:48.367Z,58.06
2023-03-25T20:15:18.099Z,57.27
2023-03-25T20:17:45.796Z,57.60
2023-03-25T20:20:15.689Z,57.95
2023-03-25T20:22:43.348Z,56.74
2023-03-25T20:25:12.490Z,58.17
2023-03-25T20:27:41.922Z,58.99
2023-03-25T20:30:11.803Z,59.21
2023-03-25T20:32:42.503Z,58.87
2023-03-25T20:35:12.898Z,59.95
2023-03-25T20:37:42.336Z,60.68
2023-03-25T20:40:12.956Z,61.39
2023-03-25T20:42:41.330Z,60.87
2023-03-25T20:45:10.998Z,60.94
2023-03-25T20:47:39.216Z,61.57
2023-03-25T20:50:08.735Z,62.90
2023-03-25T20:52:38.131Z,62.56
2023-03-25T20:55:11.608Z,62.81
2023-03-25T20:57:39.766Z,61.76
2023-03-25T21:00:09.058Z,61.89
2023-03-25T21:02:36.956Z,62.12
2023-03-25T21:05:05.643Z,62.02
2023-03-25T21:07:35.194Z,62.23
2023-03-25T21:10:02.892Z,61.39
2023-03-25T21:12:42.617Z,61.60
2023-03-25T21:15:13.170Z,62.19
2023-03-25T21:17:40.919Z,62.08
2023-03-25T21:20:10.078Z,61.10
2023-03-25T21:22:42.549Z,59.98
2023-03-25T21:25:10.688Z,61.14
2023-03-25T21:27:40.162Z,61.58
2023-03-25T21:30:10.275Z,62.98
2023-03-25T21:32:37.909Z,60.70
2023-03-25T21:35:06.050Z,60.07
2023-03-25T21:37:37.690Z,60.95
2023-03-25T21:40:08.282Z,61.75
2023-03-25T21:42:38.166Z,61.50
2023-03-25T21:45:09.134Z,62.77
2023-03-25T21:47:37.037Z,61.02
2023-03-25T21:50:09.538Z,62.30
2023-03-25T21:52:38.028Z,62.01
2023-03-25T21:55:06.456Z,62.90
2023-03-25T21:57:39.009Z,62.43
2023-03-25T22:00:09.710Z,60.72
2023-03-25T22:02:37.544Z,61.74
2023-03-25T22:05:05.809Z,63.63
2023-03-25T22:07:33.371Z,63.65
2023-03-25T22:10:00.892Z,62.68
2023-03-25T22:12:28.453Z,62.79
2023-03-25T22:14:56.013Z,63.45
2023-03-25T22:17:25.036Z,62.25
2023-03-25T22:19:52.697Z,61.37
2023-03-25T22:22:21.687Z,62.88
2023-03-25T22:24:50.445Z,61.97
2023-03-25T22:27:18.076Z,61.18
2023-03-25T22:29:46.140Z,62.70
2023-03-25T22:32:13.768Z,62.79
2023-03-25T22:34:42.809Z,62.47
2023-03-25T22:37:10.400Z,61.64
2023-03-25T22:39:39.094Z,61.42
2023-03-25T22:42:06.990Z,62.27
2023-03-25T22:44:34.602Z,63.98
2023-03-25T22:47:03.201Z,63.28
2023-03-25T22:49:31.276Z,63.91
2023-03-25T22:52:01.270Z,63.64
2023-03-25T22:54:28.888Z,62.84
2023-03-25T22:56:56.646Z,64.62
2023-03-25T22:59:24.436Z,63.55
2023-03-25T23:01:51.995Z,64.66
2023-03-25T23:04:19.527Z,62.35
2023-03-25T23:06:57.065Z,63.83
2023-03-25T23:09:42.305Z,62.55
2023-03-25T23:12:11.698Z,63.48
2023-03-25T23:14:40.613Z,64.96
2023-03-25T23:17:08.937Z,64.08
2023-03-25T23:19:36.481Z,65.11
2023-03-25T23:22:04.938Z,64.79
2023-03-25T23:24:36.879Z,63.05
2023-03-25T23:27:04.916Z,64.43
2023-03-25T23:29:35.515Z,65.17
2023-03-25T23:32:03.495Z,65.35
2023-03-25T23:34:31.678Z,64.72
2023-03-25T23:36:59.257Z,64.94
2023-03-25T23:39:27.811Z,65.12
2023-03-25T23:41:56.918Z,66.35
2023-03-25T23:44:24.426Z,65.54
2023-03-25T23:46:51.952Z,66.82
2023-03-25T23:49:20.151Z,66.76
2023-03-25T23:51:48.066Z,67.33
2023-03-25T23:54:16.877Z,67.02
2023-03-25T23:56:44.779Z,66.79
2023-03-25T23:59:13.607Z,68.70
